createdAt,value
2019-01-24T00:02:01.169Z,98753.00
2019-01-24T00:04:27.868Z,98760.88
2019-01-24T00:06:55.008Z,98756.89
2019-01-24T00:09:22.155Z,98755.94
2019-01-24T00:11:48.871Z,98753.66
2019-01-24T00:14:16.618Z,98753.55
2019-01-24T00:16:43.709Z,98751.34
2019-01-24T00:19:10.753Z,98755.42
2019-01-24T00:21:37.396Z,98755.86
2019-01-24T00:24:04.540Z,98758.87
2019-01-24T00:26:32.413Z,98766.13
2019-01-24T00:28:59.168Z,98771.27
2019-01-24T00:31:25.881Z,98778.38
2019-01-24T00:33:52.836Z,98782.09
2019-01-24T00:36:19.598Z,98779.81
2019-01-24T00:38:46.677Z,98777.23
2019-01-24T00:41:13.790Z,98773.36
2019-01-24T00:43:40.935Z,98783.89
2019-01-24T00:46:07.791Z,98780.87
2019-01-24T00:48:34.923Z,98786.55
2019-01-24T00:51:02.506Z,98794.16
2019-01-24T00:53:29.223Z,98800.62
2019-01-24T00:55:56.394Z,98797.05
2019-01-24T00:58:23.130Z,98800.31
2019-01-24T01:00:49.820Z,98806.80
2019-01-24T01:03:16.922Z,98808.02
2019-01-24T01:05:44.052Z,98807.11
2019-01-24T01:08:11.226Z,98807.17
2019-01-24T01:10:38.355Z,98804.26
2019-01-24T01:13:05.132Z,98802.97
2019-01-24T01:15:31.842Z,98805.58
2019-01-24T01:17:58.598Z,98810.63
2019-01-24T01:20:25.728Z,98811.76
2019-01-24T01:22:52.875Z,98814.50
2019-01-24T01:25:19.527Z,98817.39
2019-01-24T01:27:46.640Z,98829.38
2019-01-24T01:30:13.817Z,98836.03
2019-01-24T01:32:40.840Z,98833.11
2019-01-24T01:35:07.534Z,98831.29
2019-01-24T01:37:34.651Z,98831.48
2019-01-24T01:40:01.700Z,98825.20
2019-01-24T01:42:28.386Z,98813.94
2019-01-24T01:44:55.488Z,98815.73
2019-01-24T01:47:22.212Z,98819.88
2019-01-24T01:49:49.354Z,98823.92
2019-01-24T01:52:16.022Z,98826.47
2019-01-24T01:54:42.707Z,98823.70
2019-01-24T01:57:09.472Z,98831.39
2019-01-24T01:59:37.295Z,98829.92
2019-01-24T02:02:04.419Z,98840.51
2019-01-24T02:04:31.232Z,98840.96
2019-01-24T02:06:58.281Z,98850.37
2019-01-24T02:09:25.418Z,98851.56
2019-01-24T02:11:52.166Z,98855.38
2019-01-24T02:14:19.245Z,98851.78
2019-01-24T02:16:46.391Z,98841.89
2019-01-24T02:19:13.530Z,98836.62
2019-01-24T02:21:40.694Z,98838.17
2019-01-24T02:24:07.407Z,98837.33
2019-01-24T02:26:34.564Z,98840.59
2019-01-24T02:29:01.637Z,98846.88
2019-01-24T02:31:28.354Z,98854.49
2019-01-24T02:33:55.405Z,98856.44
2019-01-24T02:36:22.471Z,98850.64
2019-01-24T02:38:49.190Z,98855.31
2019-01-24T02:41:16.241Z,98855.97
2019-01-24T02:43:42.903Z,98863.24
2019-01-24T02:46:10.047Z,98859.77
2019-01-24T02:48:36.700Z,98862.33
2019-01-24T02:51:04.241Z,98861.07
2019-01-24T02:53:30.956Z,98858.39
2019-01-24T02:55:57.606Z,98860.34
2019-01-24T02:58:25.434Z,98859.46
2019-01-24T03:00:52.129Z,98863.26
2019-01-24T03:03:19.185Z,98867.81
2019-01-24T03:05:45.901Z,98870.41
2019-01-24T03:08:13.046Z,98871.61
2019-01-24T03:10:40.116Z,98873.96
2019-01-24T03:13:06.815Z,98871.72
2019-01-24T03:15:33.595Z,98876.20
2019-01-24T03:18:00.304Z,98872.65
2019-01-24T03:20:27.390Z,98877.75
2019-01-24T03:22:54.084Z,98873.11
2019-01-24T03:25:21.094Z,98872.48
2019-01-24T03:27:47.852Z,98874.29
2019-01-24T03:30:14.996Z,98869.92
2019-01-24T03:32:42.778Z,98868.37
2019-01-24T03:35:09.927Z,98873.45
2019-01-24T03:37:37.053Z,98862.69
2019-01-24T03:40:04.834Z,98868.09
2019-01-24T03:42:31.918Z,98868.94
2019-01-24T03:44:58.610Z,98877.45
2019-01-24T03:47:25.830Z,98878.88
2019-01-24T03:49:52.979Z,98876.39
2019-01-24T03:52:20.036Z,98871.20
2019-01-24T03:54:47.661Z,98880.35
2019-01-24T03:57:14.851Z,98885.11
2019-01-24T03:59:41.875Z,98881.09
2019-01-24T04:02:09.044Z,98872.55
2019-01-24T04:04:35.896Z,98886.74
2019-01-24T04:07:03.040Z,98889.11
2019-01-24T04:09:30.168Z,98883.41
2019-01-24T04:11:57.262Z,98879.94
2019-01-24T04:14:23.954Z,98878.84
2019-01-24T04:16:50.700Z,98878.70
2019-01-24T04:19:17.862Z,98876.17
2019-01-24T04:21:45.014Z,98883.22
2019-01-24T04:24:12.162Z,98887.20
2019-01-24T04:26:38.884Z,98891.08
2019-01-24T04:29:05.524Z,98898.98
2019-01-24T04:31:32.686Z,98900.44
2019-01-24T04:33:59.866Z,98896.30
2019-01-24T04:36:26.511Z,98885.18
2019-01-24T04:38:53.171Z,98890.72
2019-01-24T04:41:20.915Z,98888.59
2019-01-24T04:43:47.944Z,98896.13
2019-01-24T04:46:14.668Z,98891.82
2019-01-24T04:48:41.320Z,98897.41
2019-01-24T04:51:08.072Z,98897.63
2019-01-24T04:53:34.727Z,98894.49
2019-01-24T04:56:01.819Z,98901.02
2019-01-24T04:58:28.968Z,98905.75
2019-01-24T05:00:56.192Z,98909.27
2019-01-24T05:03:23.295Z,98907.77
2019-01-24T05:05:50.011Z,98903.97
2019-01-24T05:08:16.701Z,98900.15
2019-01-24T05:10:43.796Z,98900.23
2019-01-24T05:13:10.491Z,98906.43
2019-01-24T05:15:37.163Z,98907.84
2019-01-24T05:18:04.223Z,98913.23
2019-01-24T05:20:30.925Z,98916.51
2019-01-24T05:22:58.036Z,98917.02
2019-01-24T05:25:25.204Z,98920.16
2019-01-24T05:27:51.920Z,98929.13
2019-01-24T05:30:18.955Z,98934.94
2019-01-24T05:32:45.712Z,98941.80
2019-01-24T05:35:13.254Z,98938.14
2019-01-24T05:37:40.330Z,98944.30
2019-01-24T05:40:07.124Z,98956.22
2019-01-24T05:42:34.216Z,98955.17
2019-01-24T05:45:01.370Z,98961.44
2019-01-24T05:47:28.520Z,98959.95
2019-01-24T05:49:55.240Z,98961.48
2019-01-24T05:52:22.302Z,98963.86
2019-01-24T05:54:49.444Z,98959.22
2019-01-24T05:57:16.171Z,98956.05
2019-01-24T05:59:43.243Z,98961.46
2019-01-24T06:02:10.406Z,98966.54
2019-01-24T06:04:37.539Z,98971.02
2019-01-24T06:07:04.274Z,98971.51
2019-01-24T06:09:31.327Z,98972.73
2019-01-24T06:11:58.393Z,98972.25
2019-01-24T06:14:25.535Z,98971.51
2019-01-24T06:16:52.218Z,98973.75
2019-01-24T06:19:18.976Z,98978.47
2019-01-24T06:21:46.566Z,98979.20
2019-01-24T06:24:13.560Z,98985.11
2019-01-24T06:26:40.792Z,98984.29
2019-01-24T06:29:07.880Z,98985.49
2019-01-24T06:31:34.965Z,98986.70
2019-01-24T06:34:01.723Z,98996.80
2019-01-24T06:36:28.803Z,98996.78
2019-01-24T06:38:55.901Z,99006.53
2019-01-24T06:41:23.071Z,99015.14
2019-01-24T06:43:52.467Z,99016.81
2019-01-24T06:46:19.181Z,99024.84
2019-01-24T06:48:46.272Z,99020.29
2019-01-24T06:51:12.940Z,99028.45
2019-01-24T06:53:39.736Z,99026.89
2019-01-24T06:56:06.384Z,99029.10
2019-01-24T06:58:34.232Z,99031.39
2019-01-24T07:01:01.479Z,99029.64
2019-01-24T07:03:28.565Z,99034.08
2019-01-24T07:05:55.743Z,99031.48
2019-01-24T07:08:22.968Z,99034.36
2019-01-24T07:10:49.961Z,99029.72
2019-01-24T07:13:17.037Z,99032.98
2019-01-24T07:15:43.730Z,99030.27
2019-01-24T07:18:10.466Z,99034.47
2019-01-24T07:20:37.657Z,99038.38
2019-01-24T07:23:04.380Z,99039.72
2019-01-24T07:25:31.477Z,99047.73
2019-01-24T07:27:58.578Z,99043.22
2019-01-24T07:30:25.649Z,99040.73
2019-01-24T07:32:52.674Z,99054.13
2019-01-24T07:35:19.438Z,99051.80
2019-01-24T07:37:46.584Z,99057.60
2019-01-24T07:40:13.637Z,99064.35
2019-01-24T07:42:42.426Z,99064.67
2019-01-24T07:45:09.630Z,99071.18
2019-01-24T07:47:36.754Z,99065.83
2019-01-24T07:50:04.819Z,99067.62
2019-01-24T07:52:32.054Z,99076.68
2019-01-24T07:54:58.845Z,99070.89
2019-01-24T07:57:25.930Z,99071.93
2019-01-24T07:59:53.774Z,99071.33
2019-01-24T08:02:20.838Z,99070.36
2019-01-24T08:04:47.541Z,99074.24
2019-01-24T08:07:14.848Z,99073.75
2019-01-24T08:09:42.026Z,99073.56
2019-01-24T08:12:09.044Z,99071.44
2019-01-24T08:14:36.105Z,99072.23
2019-01-24T08:17:02.847Z,99073.88
2019-01-24T08:19:29.590Z,99071.77
2019-01-24T08:21:57.334Z,99078.11
2019-01-24T08:24:24.801Z,99073.38
2019-01-24T08:26:51.980Z,99073.90
2019-01-24T08:29:18.651Z,99073.98
2019-01-24T08:31:45.844Z,99083.97
2019-01-24T08:34:12.989Z,99079.19
2019-01-24T08:36:40.118Z,99092.82
2019-01-24T08:39:06.835Z,99096.23
2019-01-24T08:41:33.524Z,99097.17
2019-01-24T08:44:00.217Z,99098.56
2019-01-24T08:46:27.305Z,99100.20
2019-01-24T08:48:53.987Z,99101.71
2019-01-24T08:51:20.682Z,99104.98
2019-01-24T08:53:49.388Z,99099.01
2019-01-24T08:56:16.014Z,99101.85
2019-01-24T08:58:42.780Z,99103.63
2019-01-24T09:01:12.772Z,99105.63
2019-01-24T09:03:39.918Z,99102.33
2019-01-24T09:06:07.052Z,99109.52
2019-01-24T09:08:36.763Z,99114.03
2019-01-24T09:11:03.988Z,99119.42
2019-01-24T09:13:31.213Z,99116.28
2019-01-24T09:15:58.020Z,99110.73
2019-01-24T09:18:25.388Z,99107.78
2019-01-24T09:20:52.426Z,99102.12
2019-01-24T09:23:19.185Z,99096.40
2019-01-24T09:25:46.313Z,99096.04
2019-01-24T09:28:15.077Z,99095.66
2019-01-24T09:30:42.155Z,99092.20
2019-01-24T09:33:08.879Z,99096.06
2019-01-24T09:35:35.557Z,99096.30
2019-01-24T09:38:02.690Z,99102.21
2019-01-24T09:40:29.395Z,99102.91
2019-01-24T09:42:56.045Z,99105.67
2019-01-24T09:45:22.805Z,99104.72
2019-01-24T09:47:49.497Z,99110.33
2019-01-24T09:50:16.359Z,99113.53
2019-01-24T09:52:43.518Z,99116.48
2019-01-24T09:55:10.763Z,99112.09
2019-01-24T09:57:37.861Z,99116.55
2019-01-24T10:00:04.568Z,99110.14
2019-01-24T10:02:31.267Z,99122.67
2019-01-24T10:04:57.921Z,99125.95
2019-01-24T10:07:25.179Z,99128.23
2019-01-24T10:09:52.238Z,99129.38
2019-01-24T10:12:19.410Z,99133.27
2019-01-24T10:14:46.579Z,99129.38
2019-01-24T10:17:13.742Z,99134.28
2019-01-24T10:19:40.422Z,99132.14
2019-01-24T10:22:07.188Z,99136.62
2019-01-24T10:24:34.994Z,99136.83
2019-01-24T10:27:02.096Z,99144.35
2019-01-24T10:29:29.258Z,99142.11
2019-01-24T10:31:55.972Z,99142.73
2019-01-24T10:34:23.154Z,99138.41
2019-01-24T10:36:50.305Z,99137.19
2019-01-24T10:39:16.998Z,99135.41
2019-01-24T10:41:43.775Z,99136.80
2019-01-24T10:44:11.466Z,99143.53
2019-01-24T10:46:38.593Z,99137.95
2019-01-24T10:49:05.503Z,99136.63
2019-01-24T10:51:32.579Z,99134.01
2019-01-24T10:53:59.795Z,99124.00
2019-01-24T10:56:26.941Z,99125.03
2019-01-24T10:58:54.225Z,99119.48
2019-01-24T11:01:21.283Z,99119.23
2019-01-24T11:03:49.220Z,99114.23
2019-01-24T11:06:16.984Z,99116.12
2019-01-24T11:08:44.109Z,99115.44
2019-01-24T11:11:11.212Z,99110.38
2019-01-24T11:13:38.281Z,99116.25
2019-01-24T11:16:05.375Z,99116.94
2019-01-24T11:18:32.599Z,99110.00
2019-01-24T11:20:59.336Z,99115.24
2019-01-24T11:23:27.129Z,99119.78
2019-01-24T11:25:54.133Z,99115.77
2019-01-24T11:28:20.903Z,99114.40
2019-01-24T11:30:47.616Z,99111.80
2019-01-24T11:33:14.782Z,99110.30
2019-01-24T11:35:41.882Z,99110.19
2019-01-24T11:38:08.931Z,99107.34
2019-01-24T11:40:36.128Z,99110.56
2019-01-24T11:43:02.771Z,99106.91
2019-01-24T11:45:29.883Z,99103.16
2019-01-24T11:47:56.685Z,99104.03
2019-01-24T11:50:23.826Z,99103.59
2019-01-24T11:52:51.037Z,99103.92
2019-01-24T11:55:17.703Z,99102.98
2019-01-24T11:57:44.865Z,99101.84
2019-01-24T12:00:12.131Z,99107.39
2019-01-24T12:02:39.829Z,99107.06
2019-01-24T12:05:06.781Z,99100.12
2019-01-24T12:07:33.945Z,99091.31
2019-01-24T12:10:01.016Z,99090.95
2019-01-24T12:12:28.158Z,99092.24
2019-01-24T12:14:55.288Z,99086.52
2019-01-24T12:17:21.980Z,99087.02
2019-01-24T12:19:49.078Z,99081.89
2019-01-24T12:22:16.531Z,99085.89
2019-01-24T12:24:43.705Z,99080.25
2019-01-24T12:27:10.383Z,99077.80
2019-01-24T12:29:37.068Z,99081.15
2019-01-24T12:32:04.087Z,99089.41
2019-01-24T12:34:30.790Z,99086.72
2019-01-24T12:36:57.874Z,99082.48
2019-01-24T12:39:24.594Z,99089.59
2019-01-24T12:41:51.293Z,99091.31
2019-01-24T12:44:18.450Z,99092.98
2019-01-24T12:46:45.138Z,99090.69
2019-01-24T12:49:12.197Z,99090.16
2019-01-24T12:51:38.920Z,99087.05
2019-01-24T12:54:06.103Z,99091.59
2019-01-24T12:56:33.150Z,99089.31
2019-01-24T12:58:59.875Z,99093.64
2019-01-24T13:01:26.628Z,99089.91
2019-01-24T13:03:53.715Z,99083.27
2019-01-24T13:06:20.932Z,99084.66
2019-01-24T13:08:47.588Z,99088.02
2019-01-24T13:11:14.608Z,99081.13
2019-01-24T13:13:41.767Z,99083.44
2019-01-24T13:16:08.814Z,99079.47
2019-01-24T13:18:35.869Z,99088.44
2019-01-24T13:21:02.590Z,99085.48
2019-01-24T13:23:29.641Z,99085.64
2019-01-24T13:25:56.727Z,99082.95
2019-01-24T13:28:23.423Z,99078.93
2019-01-24T13:30:50.482Z,99081.50
2019-01-24T13:33:17.243Z,99081.34
2019-01-24T13:35:43.971Z,99082.81
2019-01-24T13:38:11.100Z,99081.80
2019-01-24T13:40:37.756Z,99082.76
2019-01-24T13:43:04.449Z,99079.20
2019-01-24T13:45:31.201Z,99081.03
2019-01-24T13:47:57.930Z,99081.83
2019-01-24T13:50:24.634Z,99077.94
2019-01-24T13:52:51.383Z,99074.83
2019-01-24T13:55:18.539Z,99076.64
2019-01-24T13:57:45.248Z,99074.75
2019-01-24T14:00:12.405Z,99074.85
2019-01-24T14:02:39.068Z,99077.97
2019-01-24T14:05:05.710Z,99074.66
2019-01-24T14:07:33.201Z,99075.48
2019-01-24T14:10:00.260Z,99075.06
2019-01-24T14:12:27.441Z,99075.59
2019-01-24T14:14:54.490Z,99070.36
2019-01-24T14:17:21.166Z,99068.36
2019-01-24T14:19:47.905Z,99074.62
2019-01-24T14:22:15.017Z,99075.66
2019-01-24T14:24:42.056Z,99078.94
2019-01-24T14:27:09.214Z,99072.00
2019-01-24T14:29:36.387Z,99078.42
2019-01-24T14:32:03.539Z,99077.06
2019-01-24T14:34:30.562Z,99081.02
2019-01-24T14:36:57.609Z,99082.88
2019-01-24T14:39:24.741Z,99077.95
2019-01-24T14:41:51.791Z,99083.87
2019-01-24T14:44:18.554Z,99082.02
2019-01-24T14:46:45.611Z,99091.90
2019-01-24T14:49:12.648Z,99093.34
2019-01-24T14:51:39.333Z,99089.11
2019-01-24T14:54:06.556Z,99097.21
2019-01-24T14:56:33.697Z,99089.11
2019-01-24T14:59:00.338Z,99090.23
2019-01-24T15:01:27.079Z,99088.92
2019-01-24T15:03:53.854Z,99090.51
2019-01-24T15:06:20.857Z,99080.69
2019-01-24T15:08:47.598Z,99080.41
2019-01-24T15:11:14.363Z,99089.14
2019-01-24T15:13:41.481Z,99089.75
2019-01-24T15:16:10.721Z,99088.85
2019-01-24T15:18:38.538Z,99088.11
2019-01-24T15:21:05.673Z,99088.39
2019-01-24T15:23:34.549Z,99094.90
2019-01-24T15:26:05.218Z,99091.51
2019-01-24T15:28:31.975Z,99098.84
2019-01-24T15:30:59.145Z,99090.14
2019-01-24T15:33:26.352Z,99096.38
2019-01-24T15:36:01.636Z,99094.73
2019-01-24T15:38:22.573Z,99100.78
2019-01-24T15:40:49.274Z,99096.71
2019-01-24T15:43:22.133Z,99095.41
2019-01-24T15:45:49.112Z,99103.97
2019-01-24T15:48:16.377Z,99107.73
2019-01-24T15:50:43.167Z,99110.72
2019-01-24T15:53:10.531Z,99107.95
2019-01-24T15:55:37.176Z,99107.80
2019-01-24T15:58:04.408Z,99110.26
2019-01-24T16:00:31.017Z,99098.74
2019-01-24T16:02:58.231Z,99099.51
2019-01-24T16:05:25.251Z,99099.13
2019-01-24T16:07:52.284Z,99107.58
2019-01-24T16:10:19.045Z,99109.22
2019-01-24T16:12:45.724Z,99113.95
2019-01-24T16:15:12.501Z,99109.55
2019-01-24T16:17:39.198Z,99111.57
2019-01-24T16:20:06.320Z,99110.28
2019-01-24T16:22:33.079Z,99110.83
2019-01-24T16:25:00.178Z,99116.25
2019-01-24T16:27:26.880Z,99118.44
2019-01-24T16:29:54.049Z,99120.57
2019-01-24T16:32:20.677Z,99121.36
2019-01-24T16:34:47.438Z,99113.51
2019-01-24T16:37:14.150Z,99114.11
2019-01-24T16:39:41.275Z,99115.53
2019-01-24T16:42:07.961Z,99117.94
2019-01-24T16:44:35.087Z,99115.89
2019-01-24T16:47:02.228Z,99119.20
2019-01-24T16:49:28.865Z,99116.03
2019-01-24T16:51:55.898Z,99118.85
2019-01-24T16:54:23.041Z,99119.31
2019-01-24T16:56:50.221Z,99119.30
2019-01-24T16:59:17.223Z,99117.95
2019-01-24T17:01:43.944Z,99117.30
2019-01-24T17:04:11.066Z,99117.23
2019-01-24T17:06:37.711Z,99114.55
2019-01-24T17:09:04.484Z,99115.10
2019-01-24T17:11:31.534Z,99110.86
2019-01-24T17:13:58.667Z,99117.42
2019-01-24T17:16:25.758Z,99116.11
2019-01-24T17:18:52.401Z,99121.23
2019-01-24T17:21:19.089Z,99123.66
2019-01-24T17:23:45.851Z,99129.68
2019-01-24T17:26:12.924Z,99127.90
2019-01-24T17:28:39.640Z,99129.41
2019-01-24T17:31:06.836Z,99135.61
2019-01-24T17:33:33.608Z,99132.39
2019-01-24T17:36:00.681Z,99136.28
2019-01-24T17:38:27.755Z,99137.26
2019-01-24T17:40:54.787Z,99137.20
2019-01-24T17:43:21.953Z,99139.23
2019-01-24T17:45:52.883Z,99134.53
2019-01-24T17:48:20.126Z,99131.69
2019-01-24T17:50:46.903Z,99138.69
2019-01-24T17:53:14.036Z,99140.71
2019-01-24T17:55:40.686Z,99134.36
2019-01-24T17:58:07.495Z,99134.64
2019-01-24T18:00:34.588Z,99137.54
2019-01-24T18:03:01.295Z,99146.10
2019-01-24T18:05:28.032Z,99143.28
2019-01-24T18:07:54.685Z,99137.40
2019-01-24T18:10:21.746Z,99139.78
2019-01-24T18:12:48.523Z,99146.98
2019-01-24T18:15:15.228Z,99145.09
2019-01-24T18:17:42.378Z,99151.13
2019-01-24T18:20:09.525Z,99152.09
2019-01-24T18:22:36.546Z,99151.98
2019-01-24T18:25:03.676Z,99151.43
2019-01-24T18:27:31.374Z,99153.86
2019-01-24T18:29:58.610Z,99153.48
2019-01-24T18:32:25.715Z,99153.81
2019-01-24T18:34:52.930Z,99152.82
2019-01-24T18:37:20.084Z,99152.88
2019-01-24T18:39:47.229Z,99145.52
2019-01-24T18:42:13.950Z,99145.30
2019-01-24T18:44:41.144Z,99145.79
2019-01-24T18:47:09.396Z,99144.64
2019-01-24T18:49:36.651Z,99145.14
2019-01-24T18:52:03.809Z,99139.86
2019-01-24T18:54:30.520Z,99140.63
2019-01-24T18:56:57.243Z,99144.31
2019-01-24T18:59:24.310Z,99135.78
2019-01-24T19:01:51.477Z,99138.98
2019-01-24T19:04:18.504Z,99136.66
2019-01-24T19:06:45.196Z,99132.94
2019-01-24T19:09:12.335Z,99137.42
2019-01-24T19:11:39.432Z,99137.25
2019-01-24T19:14:06.191Z,99142.39
2019-01-24T19:16:32.888Z,99144.20
2019-01-24T19:18:59.555Z,99139.11
2019-01-24T19:21:26.793Z,99145.70
2019-01-24T19:23:53.526Z,99144.93
2019-01-24T19:26:20.379Z,99142.91
2019-01-24T19:28:47.153Z,99147.31
2019-01-24T19:31:14.293Z,99143.70
2019-01-24T19:33:41.246Z,99145.39
2019-01-24T19:36:08.443Z,99148.20
2019-01-24T19:38:35.576Z,99147.79
2019-01-24T19:41:02.704Z,99141.13
2019-01-24T19:43:29.478Z,99147.92
2019-01-24T19:45:56.138Z,99145.77
2019-01-24T19:48:22.837Z,99147.61
2019-01-24T19:50:49.585Z,99141.84
2019-01-24T19:53:16.816Z,99149.52
2019-01-24T19:55:43.544Z,99147.21
2019-01-24T19:58:10.691Z,99149.86
2019-01-24T20:00:37.394Z,99148.25
2019-01-24T20:03:04.573Z,99147.38
2019-01-24T20:05:31.314Z,99143.00
2019-01-24T20:07:57.992Z,99142.19
2019-01-24T20:10:24.773Z,99137.63
2019-01-24T20:12:51.503Z,99140.13
2019-01-24T20:15:18.199Z,99134.58
2019-01-24T20:17:45.282Z,99137.61
2019-01-24T20:20:12.025Z,99136.79
2019-01-24T20:22:41.433Z,99132.71
2019-01-24T20:25:08.608Z,99130.23
2019-01-24T20:27:35.885Z,99135.09
2019-01-24T20:30:02.930Z,99132.47
2019-01-24T20:32:31.643Z,99130.97
2019-01-24T20:34:58.409Z,99132.17
2019-01-24T20:37:25.573Z,99125.50
2019-01-24T20:39:52.219Z,99124.90
2019-01-24T20:42:18.985Z,99122.69
2019-01-24T20:44:46.056Z,99123.67
2019-01-24T20:47:13.228Z,99121.88
2019-01-24T20:49:40.355Z,99120.72
2019-01-24T20:52:07.529Z,99122.03
2019-01-24T20:54:34.284Z,99121.95
2019-01-24T20:57:01.399Z,99121.81
2019-01-24T20:59:28.087Z,99117.66
2019-01-24T21:01:55.282Z,99115.11
2019-01-24T21:04:22.003Z,99112.52
2019-01-24T21:06:49.062Z,99117.83
2019-01-24T21:09:16.129Z,99124.96
2019-01-24T21:11:42.844Z,99129.25
2019-01-24T21:14:09.548Z,99126.27
2019-01-24T21:16:36.680Z,99128.48
2019-01-24T21:19:03.327Z,99129.69
2019-01-24T21:21:30.124Z,99128.40
2019-01-24T21:23:57.294Z,99131.05
2019-01-24T21:26:24.436Z,99125.25
2019-01-24T21:28:51.593Z,99126.89
2019-01-24T21:31:18.304Z,99124.75
2019-01-24T21:33:45.433Z,99119.56
2019-01-24T21:36:12.519Z,99119.08
2019-01-24T21:38:39.575Z,99122.05
2019-01-24T21:41:06.725Z,99117.30
2019-01-24T21:43:33.441Z,99110.90
2019-01-24T21:46:00.123Z,99107.07
2019-01-24T21:48:27.209Z,99106.72
2019-01-24T21:50:54.332Z,99109.83
2019-01-24T21:53:21.347Z,99108.36
2019-01-24T21:55:48.498Z,99118.41
2019-01-24T21:58:15.224Z,99116.11
2019-01-24T22:00:42.387Z,99117.75
2019-01-24T22:03:09.436Z,99118.11
2019-01-24T22:05:36.579Z,99119.86
2019-01-24T22:08:03.318Z,99122.67
2019-01-24T22:10:30.373Z,99126.20
2019-01-24T22:12:57.537Z,99124.36
2019-01-24T22:15:24.243Z,99127.86
2019-01-24T22:17:51.318Z,99130.09
2019-01-24T22:20:18.031Z,99128.45
2019-01-24T22:22:44.794Z,99122.01
2019-01-24T22:25:11.509Z,99125.72
2019-01-24T22:27:38.588Z,99127.85
2019-01-24T22:30:05.358Z,99123.17
2019-01-24T22:32:32.455Z,99122.92
2019-01-24T22:34:59.523Z,99127.49
2019-01-24T22:37:26.250Z,99125.00
2019-01-24T22:39:53.300Z,99121.48
2019-01-24T22:42:20.000Z,99120.24
2019-01-24T22:44:46.708Z,99119.59
2019-01-24T22:47:13.860Z,99118.88
2019-01-24T22:49:40.997Z,99127.04
2019-01-24T22:52:08.165Z,99120.67
2019-01-24T22:54:35.297Z,99113.77
2019-01-24T22:57:02.016Z,99112.53
2019-01-24T22:59:29.205Z,99111.33
2019-01-24T23:01:55.911Z,99104.22
2019-01-24T23:04:22.610Z,99109.79
2019-01-24T23:06:49.692Z,99107.66
2019-01-24T23:09:16.761Z,99111.48
2019-01-24T23:11:43.408Z,99116.73
2019-01-24T23:14:10.554Z,99114.46
2019-01-24T23:16:37.676Z,99112.22
2019-01-24T23:19:04.729Z,99108.29
2019-01-24T23:21:31.798Z,99112.59
2019-01-24T23:23:58.944Z,99105.87
2019-01-24T23:26:26.113Z,99105.92
2019-01-24T23:28:52.792Z,99108.00
2019-01-24T23:31:19.886Z,99104.23
2019-01-24T23:33:47.029Z,99099.73
2019-01-24T23:36:13.740Z,99102.77
2019-01-24T23:38:40.845Z,99098.31
2019-01-24T23:41:07.563Z,99097.44
2019-01-24T23:43:34.742Z,99101.02
2019-01-24T23:46:01.610Z,99106.10
2019-01-24T23:48:28.713Z,99099.69
2019-01-24T23:50:55.479Z,99101.02
2019-01-24T23:53:22.159Z,99092.42
2019-01-24T23:55:49.896Z,99094.75
2019-01-24T23:58:16.620Z,99090.65
